createdAt,value
2018-09-24T00:00:40.343Z,76.60
2018-09-24T00:03:07.511Z,77.80
2018-09-24T00:05:34.655Z,78.10
2018-09-24T00:08:01.836Z,78.90
2018-09-24T00:10:28.988Z,78.80
2018-09-24T00:12:56.155Z,78.50
2018-09-24T00:15:23.326Z,78.90
2018-09-24T00:17:50.483Z,78.70
2018-09-24T00:20:17.648Z,78.10
2018-09-24T00:22:44.812Z,77.60
2018-09-24T00:25:11.988Z,78.00
2018-09-24T00:27:39.158Z,78.20
2018-09-24T00:30:06.348Z,78.70
2018-09-24T00:32:33.531Z,77.20
2018-09-24T00:35:00.687Z,77.80
2018-09-24T00:37:27.873Z,78.00
2018-09-24T00:39:55.090Z,78.30
2018-09-24T00:42:22.207Z,79.60
2018-09-24T00:44:49.368Z,79.50
2018-09-24T00:47:16.614Z,80.20
2018-09-24T00:49:43.734Z,80.00
2018-09-24T00:52:10.903Z,79.00
2018-09-24T00:54:38.072Z,79.50
2018-09-24T00:57:05.276Z,79.50
2018-09-24T00:59:32.439Z,79.80
2018-09-24T01:01:59.607Z,80.00
2018-09-24T01:04:26.760Z,80.50
2018-09-24T01:06:53.932Z,81.30
2018-09-24T01:09:21.095Z,81.00
2018-09-24T01:11:48.288Z,82.10
2018-09-24T01:14:15.448Z,82.40
2018-09-24T01:16:42.635Z,82.50
2018-09-24T01:19:16.419Z,82.10
2018-09-24T01:21:43.593Z,82.50
2018-09-24T01:24:10.767Z,83.10
2018-09-24T01:26:37.944Z,83.80
2018-09-24T01:29:05.140Z,84.80
2018-09-24T01:31:32.295Z,85.30
2018-09-24T01:33:59.476Z,85.50
2018-09-24T01:36:26.643Z,86.50
2018-09-24T01:38:53.799Z,86.50
2018-09-24T01:41:20.973Z,86.30
2018-09-24T01:43:48.161Z,87.10
2018-09-24T01:46:15.343Z,87.70
2018-09-24T01:48:43.196Z,86.80
2018-09-24T01:51:10.356Z,87.10
2018-09-24T01:53:37.510Z,87.30
2018-09-24T01:56:04.903Z,86.90
2018-09-24T01:58:35.840Z,87.30
2018-09-24T02:01:03.276Z,87.40
2018-09-24T02:03:32.103Z,86.80
2018-09-24T02:05:59.727Z,86.60
2018-09-24T02:08:26.911Z,87.10
2018-09-24T02:10:54.076Z,87.40
2018-09-24T02:13:21.248Z,87.80
2018-09-24T02:15:48.539Z,87.60
2018-09-24T02:18:15.698Z,87.80
2018-09-24T02:20:47.166Z,87.20
2018-09-24T02:23:14.631Z,87.10
2018-09-24T02:25:41.863Z,87.40
2018-09-24T02:28:09.022Z,87.30
2018-09-24T02:30:36.176Z,88.10
2018-09-24T02:33:07.856Z,87.60
2018-09-24T02:35:35.259Z,88.60
2018-09-24T02:38:02.453Z,88.20
2018-09-24T02:40:29.626Z,87.20
2018-09-24T02:42:56.815Z,85.90
2018-09-24T02:45:23.975Z,86.40
2018-09-24T02:47:51.151Z,86.40
2018-09-24T02:50:18.299Z,85.90
2018-09-24T02:52:45.471Z,86.60
2018-09-24T02:55:17.728Z,86.60
2018-09-24T02:57:45.078Z,85.90
2018-09-24T03:00:15.700Z,86.30
2018-09-24T03:02:43.031Z,85.90
2018-09-24T03:05:10.201Z,85.90
2018-09-24T03:07:37.384Z,85.80
2018-09-24T03:10:04.609Z,85.80
2018-09-24T03:12:31.764Z,88.00
2018-09-24T03:14:58.951Z,88.60
2018-09-24T03:17:26.126Z,88.00
2018-09-24T03:19:53.308Z,88.60
2018-09-24T03:22:22.244Z,88.50
2018-09-24T03:24:49.720Z,88.50
2018-09-24T03:27:16.887Z,88.30
2018-09-24T03:29:44.056Z,89.10
2018-09-24T03:32:11.243Z,88.60
2018-09-24T03:34:40.728Z,89.00
2018-09-24T03:37:08.238Z,89.10
2018-09-24T03:39:35.723Z,88.70
2018-09-24T03:42:02.978Z,88.20
2018-09-24T03:44:30.101Z,88.30
2018-09-24T03:46:57.260Z,87.90
2018-09-24T03:49:24.440Z,87.90
2018-09-24T03:51:51.616Z,88.00
2018-09-24T03:54:18.920Z,88.20
2018-09-24T03:56:46.071Z,88.50
2018-09-24T03:59:13.239Z,89.10
2018-09-24T04:01:40.408Z,90.20
2018-09-24T04:04:13.290Z,89.90
2018-09-24T04:06:46.288Z,90.30
2018-09-24T04:09:19.205Z,89.90
2018-09-24T04:11:52.200Z,90.00
2018-09-24T04:14:25.071Z,89.70
2018-09-24T04:16:57.996Z,90.00
2018-09-24T04:19:31.021Z,89.80
2018-09-24T04:22:03.804Z,90.10
2018-09-24T04:24:36.868Z,90.30
2018-09-24T04:27:10.032Z,90.40
2018-09-24T04:29:42.873Z,90.50
2018-09-24T04:32:15.724Z,90.50
2018-09-24T04:34:48.680Z,90.60
2018-09-24T04:37:21.776Z,90.50
2018-09-24T04:39:54.584Z,90.60
2018-09-24T04:42:27.388Z,90.50
2018-09-24T04:45:00.268Z,90.60
2018-09-24T04:47:33.320Z,90.30
2018-09-24T04:50:06.300Z,90.50
2018-09-24T04:52:39.224Z,90.80
2018-09-24T04:55:12.200Z,90.90
2018-09-24T04:57:45.104Z,90.70
2018-09-24T05:00:18.252Z,90.20
2018-09-24T05:02:51.276Z,90.60
2018-09-24T05:05:24.327Z,91.00
2018-09-24T05:07:57.111Z,90.70
2018-09-24T05:10:30.067Z,90.70
2018-09-24T05:13:03.047Z,91.00
2018-09-24T05:15:36.039Z,91.00
2018-09-24T05:18:08.976Z,90.80
2018-09-24T05:20:41.995Z,90.80
2018-09-24T05:23:14.951Z,90.60
2018-09-24T05:25:47.827Z,90.60
2018-09-24T05:28:20.892Z,90.70
2018-09-24T05:30:54.020Z,90.60
2018-09-24T05:33:27.095Z,90.70
2018-09-24T05:36:00.067Z,90.50
2018-09-24T05:38:33.046Z,90.20
2018-09-24T05:41:05.942Z,89.90
2018-09-24T05:43:38.860Z,90.00
2018-09-24T05:46:13.051Z,90.00
2018-09-24T05:48:45.984Z,90.20
2018-09-24T05:51:19.040Z,90.40
2018-09-24T05:53:52.069Z,90.60
2018-09-24T05:56:25.099Z,90.50
2018-09-24T05:58:57.995Z,90.90
2018-09-24T06:01:31.080Z,90.40
2018-09-24T06:04:04.165Z,90.30
2018-09-24T06:06:37.011Z,90.50
2018-09-24T06:09:12.719Z,90.70
2018-09-24T06:11:47.216Z,90.50
2018-09-24T06:14:19.972Z,90.60
2018-09-24T06:16:52.942Z,90.40
2018-09-24T06:19:25.881Z,90.50
2018-09-24T06:21:58.956Z,90.30
2018-09-24T06:24:32.028Z,90.70
2018-09-24T06:27:04.859Z,90.20
2018-09-24T06:29:37.963Z,90.10
2018-09-24T06:32:11.204Z,90.00
2018-09-24T06:34:44.404Z,90.20
2018-09-24T06:37:17.470Z,90.10
2018-09-24T06:39:50.501Z,89.90
2018-09-24T06:42:23.413Z,90.30
2018-09-24T06:44:57.397Z,89.70
2018-09-24T06:47:30.334Z,90.00
2018-09-24T06:50:03.340Z,90.10
2018-09-24T06:52:36.317Z,89.50
2018-09-24T06:55:09.192Z,89.20
2018-09-24T06:57:42.071Z,88.40
2018-09-24T07:00:14.977Z,87.90
2018-09-24T07:02:47.991Z,87.70
2018-09-24T07:05:21.077Z,87.90
2018-09-24T07:07:54.289Z,87.80
2018-09-24T07:10:27.340Z,88.00
2018-09-24T07:13:00.396Z,87.50
2018-09-24T07:15:33.296Z,85.30
2018-09-24T07:18:06.052Z,84.10
2018-09-24T07:20:38.951Z,83.70
2018-09-24T07:23:12.004Z,84.90
2018-09-24T07:25:44.957Z,86.10
2018-09-24T07:28:17.821Z,83.70
2018-09-24T07:30:50.688Z,82.60
2018-09-24T07:33:23.949Z,79.90
2018-09-24T07:35:56.825Z,80.40
2018-09-24T07:38:36.495Z,79.20
2018-09-24T07:41:09.370Z,80.30
2018-09-24T07:43:42.332Z,79.20
2018-09-24T07:46:15.181Z,81.10
2018-09-24T07:48:47.956Z,81.50
2018-09-24T07:51:20.991Z,80.70
2018-09-24T07:53:53.993Z,79.40
2018-09-24T07:56:27.037Z,80.00
2018-09-24T07:58:59.928Z,79.30
2018-09-24T08:01:34.415Z,79.50
2018-09-24T08:04:07.456Z,79.00
2018-09-24T08:06:40.460Z,79.50
2018-09-24T08:09:13.486Z,78.90
2018-09-24T08:11:46.544Z,78.20
2018-09-24T08:14:19.540Z,81.00
2018-09-24T08:16:52.634Z,80.40
2018-09-24T08:19:25.490Z,80.30
2018-09-24T08:21:58.427Z,78.60
2018-09-24T08:24:31.223Z,77.80
2018-09-24T08:27:11.098Z,79.50
2018-09-24T08:29:44.083Z,78.60
2018-09-24T08:32:17.163Z,79.50
2018-09-24T08:34:50.187Z,80.00
2018-09-24T08:37:22.991Z,77.80
2018-09-24T08:39:55.948Z,77.70
2018-09-24T08:42:29.004Z,75.70
2018-09-24T08:45:01.848Z,77.30
2018-09-24T08:47:34.651Z,77.90
2018-09-24T08:50:07.503Z,75.70
2018-09-24T08:52:40.439Z,75.30
2018-09-24T08:55:13.435Z,77.70
2018-09-24T08:57:46.228Z,75.80
2018-09-24T09:00:19.316Z,74.90
2018-09-24T09:02:52.132Z,75.80
2018-09-24T09:05:25.080Z,76.30
2018-09-24T09:07:58.131Z,76.60
2018-09-24T09:10:31.112Z,75.30
2018-09-24T09:13:04.042Z,73.70
2018-09-24T09:15:36.916Z,74.70
2018-09-24T09:18:09.870Z,74.40
2018-09-24T09:20:42.747Z,73.10
2018-09-24T09:23:15.651Z,71.90
2018-09-24T09:25:48.437Z,69.70
2018-09-24T09:28:21.411Z,71.50
2018-09-24T09:30:54.431Z,71.60
2018-09-24T09:33:27.439Z,71.10
2018-09-24T09:36:00.391Z,72.80
2018-09-24T09:38:33.370Z,73.50
2018-09-24T09:41:06.181Z,71.30
2018-09-24T09:43:45.604Z,72.50
2018-09-24T09:46:18.607Z,70.90
2018-09-24T09:48:51.588Z,70.80
2018-09-24T09:51:24.407Z,70.80
2018-09-24T09:53:57.264Z,69.40
2018-09-24T09:56:30.244Z,67.80
2018-09-24T09:59:03.288Z,65.30
2018-09-24T10:01:36.077Z,63.60
2018-09-24T10:04:09.008Z,65.50
2018-09-24T10:06:41.958Z,67.70
2018-09-24T10:09:14.936Z,65.10
2018-09-24T10:11:47.992Z,61.90
2018-09-24T10:14:20.797Z,61.90
2018-09-24T10:16:53.695Z,61.20
2018-09-24T10:19:26.643Z,62.60
2018-09-24T10:21:59.579Z,64.00
2018-09-24T10:24:32.333Z,62.90
2018-09-24T10:27:05.261Z,64.80
2018-09-24T10:29:38.268Z,65.80
2018-09-24T10:32:11.268Z,63.70
2018-09-24T10:34:44.294Z,63.10
2018-09-24T10:37:17.304Z,64.70
2018-09-24T10:39:50.396Z,64.70
2018-09-24T10:42:23.432Z,63.00
2018-09-24T10:44:56.480Z,59.50
2018-09-24T10:47:29.412Z,61.10
2018-09-24T10:50:02.191Z,60.90
2018-09-24T10:52:35.044Z,57.50
2018-09-24T10:55:08.124Z,62.20
2018-09-24T10:57:41.127Z,58.80
2018-09-24T11:00:14.180Z,60.20
2018-09-24T11:02:47.159Z,62.80
2018-09-24T11:05:20.084Z,57.40
2018-09-24T11:07:52.863Z,57.40
2018-09-24T11:10:25.735Z,58.20
2018-09-24T11:12:58.519Z,57.40
2018-09-24T11:15:31.403Z,56.70
2018-09-24T11:18:04.326Z,55.80
2018-09-24T11:20:37.285Z,54.90
2018-09-24T11:23:10.262Z,57.00
2018-09-24T11:25:43.103Z,55.20
2018-09-24T11:28:16.163Z,57.20
2018-09-24T11:30:49.219Z,56.80
2018-09-24T11:33:22.231Z,56.00
2018-09-24T11:35:55.224Z,53.60
2018-09-24T11:38:28.252Z,54.10
2018-09-24T11:41:01.107Z,54.60
2018-09-24T11:43:34.080Z,53.00
2018-09-24T11:46:07.043Z,53.10
2018-09-24T11:48:39.896Z,54.20
2018-09-24T11:51:12.776Z,53.60
2018-09-24T11:53:45.844Z,54.40
2018-09-24T11:56:18.852Z,52.80
2018-09-24T11:58:51.755Z,53.30
2018-09-24T12:01:24.607Z,53.00
2018-09-24T12:03:57.518Z,54.20
2018-09-24T12:06:30.371Z,55.60
2018-09-24T12:09:03.315Z,55.90
2018-09-24T12:11:36.320Z,57.50
2018-09-24T12:14:09.267Z,58.20
2018-09-24T12:16:42.355Z,57.20
2018-09-24T12:19:15.384Z,56.60
2018-09-24T12:21:48.212Z,55.60
2018-09-24T12:24:21.113Z,52.50
2018-09-24T12:26:54.169Z,49.50
2018-09-24T12:29:27.144Z,49.10
2018-09-24T12:32:00.218Z,46.70
2018-09-24T12:34:33.300Z,44.40
2018-09-24T12:37:06.327Z,45.10
2018-09-24T12:39:39.136Z,48.20
2018-09-24T12:42:12.261Z,44.00
2018-09-24T12:44:45.188Z,47.20
2018-09-24T12:47:18.220Z,49.30
2018-09-24T12:49:51.072Z,48.50
2018-09-24T12:52:24.103Z,48.90
2018-09-24T12:54:57.191Z,46.30
2018-09-24T12:57:30.095Z,52.10
2018-09-24T13:00:02.907Z,48.70
2018-09-24T13:02:35.819Z,48.40
2018-09-24T13:05:08.796Z,50.80
2018-09-24T13:07:41.691Z,50.50
2018-09-24T13:10:14.723Z,51.90
2018-09-24T13:12:47.679Z,52.20
2018-09-24T13:15:20.732Z,54.80
2018-09-24T13:17:53.637Z,54.10
2018-09-24T13:20:26.465Z,57.10
2018-09-24T13:22:59.316Z,55.40
2018-09-24T13:25:32.268Z,54.50
2018-09-24T13:28:05.152Z,55.10
2018-09-24T13:30:38.200Z,51.30
2018-09-24T13:33:11.180Z,50.00
2018-09-24T13:35:44.132Z,51.40
2018-09-24T13:38:16.992Z,53.10
2018-09-24T13:40:50.040Z,51.20
2018-09-24T13:43:23.027Z,54.00
2018-09-24T13:45:56.083Z,54.60
2018-09-24T13:48:29.076Z,52.00
2018-09-24T13:51:02.104Z,51.20
2018-09-24T13:53:35.085Z,47.00
2018-09-24T13:56:07.899Z,47.20
2018-09-24T13:58:40.788Z,50.00
2018-09-24T14:01:13.691Z,46.80
2018-09-24T14:03:46.719Z,46.30
2018-09-24T14:06:19.646Z,46.50
2018-09-24T14:08:52.581Z,45.10
2018-09-24T14:11:25.574Z,48.00
2018-09-24T14:13:58.507Z,49.50
2018-09-24T14:16:31.313Z,48.30
2018-09-24T14:19:04.359Z,50.10
2018-09-24T14:21:37.419Z,49.50
2018-09-24T14:24:10.396Z,50.50
2018-09-24T14:26:43.277Z,49.40
2018-09-24T14:29:16.051Z,49.00
2018-09-24T14:31:49.036Z,48.60
2018-09-24T14:34:21.912Z,48.40
2018-09-24T14:36:54.917Z,50.20
2018-09-24T14:39:27.748Z,49.30
2018-09-24T14:42:00.842Z,50.20
2018-09-24T14:44:33.900Z,50.80
2018-09-24T14:47:07.131Z,48.90
2018-09-24T14:49:40.132Z,47.80
2018-09-24T14:52:13.032Z,47.80
2018-09-24T14:54:46.039Z,48.90
2018-09-24T14:57:18.840Z,47.10
2018-09-24T14:59:51.674Z,50.00
2018-09-24T15:02:24.675Z,48.90
2018-09-24T15:04:57.500Z,48.80
2018-09-24T15:07:30.536Z,48.80
2018-09-24T15:10:03.503Z,47.20
2018-09-24T15:12:36.325Z,47.20
2018-09-24T15:15:09.195Z,46.60
2018-09-24T15:17:42.248Z,48.10
2018-09-24T15:20:15.248Z,49.00
2018-09-24T15:22:48.301Z,49.40
2018-09-24T15:25:21.285Z,48.80
2018-09-24T15:27:54.207Z,49.80
2018-09-24T15:30:27.264Z,50.20
2018-09-24T15:33:00.371Z,49.30
2018-09-24T15:35:33.396Z,49.20
2018-09-24T15:38:06.424Z,49.90
2018-09-24T15:40:39.581Z,49.10
2018-09-24T15:43:12.380Z,47.90
2018-09-24T15:45:45.374Z,48.50
2018-09-24T15:48:18.208Z,51.20
2018-09-24T15:50:51.089Z,51.00
2018-09-24T15:53:24.143Z,49.60
2018-09-24T15:56:03.772Z,51.40
2018-09-24T15:58:36.776Z,51.80
2018-09-24T16:01:09.751Z,50.90
2018-09-24T16:03:42.753Z,50.90
2018-09-24T16:06:15.784Z,49.80
2018-09-24T16:08:48.836Z,49.60
2018-09-24T16:11:21.788Z,49.10
2018-09-24T16:13:54.615Z,49.30
2018-09-24T16:16:27.499Z,48.90
2018-09-24T16:19:00.323Z,50.00
2018-09-24T16:21:33.215Z,52.30
2018-09-24T16:24:06.228Z,52.10
2018-09-24T16:26:38.983Z,53.30
2018-09-24T16:29:11.915Z,50.80
2018-09-24T16:31:44.820Z,51.20
2018-09-24T16:34:17.772Z,53.40
2018-09-24T16:36:50.744Z,51.60
2018-09-24T16:39:23.667Z,52.50
2018-09-24T16:41:56.631Z,53.80
2018-09-24T16:44:29.615Z,54.50
2018-09-24T16:47:02.571Z,53.60
2018-09-24T16:49:35.463Z,54.90
2018-09-24T16:52:08.463Z,53.80
2018-09-24T16:54:41.398Z,55.40
2018-09-24T16:57:14.451Z,57.00
2018-09-24T16:59:47.436Z,54.90
2018-09-24T17:02:20.379Z,56.00
2018-09-24T17:04:53.412Z,56.70
2018-09-24T17:07:26.492Z,56.40
2018-09-24T17:09:59.319Z,56.40
2018-09-24T17:12:32.251Z,57.30
2018-09-24T17:15:05.279Z,55.80
2018-09-24T17:17:38.128Z,55.90
2018-09-24T17:20:11.247Z,55.20
2018-09-24T17:22:44.237Z,55.10
2018-09-24T17:25:17.155Z,55.80
2018-09-24T17:27:50.056Z,56.20
2018-09-24T17:30:23.013Z,55.60
2018-09-24T17:32:56.068Z,55.60
2018-09-24T17:35:28.938Z,55.60
2018-09-24T17:38:01.948Z,55.00
2018-09-24T17:40:34.991Z,55.50
2018-09-24T17:43:08.643Z,57.20
2018-09-24T17:45:41.451Z,57.40
2018-09-24T17:48:14.436Z,58.00
2018-09-24T17:50:47.487Z,57.90
2018-09-24T17:53:20.374Z,58.50
2018-09-24T17:55:53.475Z,60.20
2018-09-24T18:03:28.161Z,60.40
2018-09-24T18:06:02.081Z,61.60
2018-09-24T18:08:35.785Z,62.40
2018-09-24T18:11:09.997Z,62.80
2018-09-24T18:13:43.207Z,63.80
2018-09-24T18:16:16.733Z,64.30
2018-09-24T18:18:49.692Z,64.20
2018-09-24T18:21:22.731Z,64.00
2018-09-24T18:23:55.668Z,63.90
2018-09-24T18:26:28.844Z,64.00
2018-09-24T18:29:01.734Z,64.90
2018-09-24T18:31:34.845Z,65.60
2018-09-24T18:34:08.508Z,65.70
2018-09-24T18:36:42.469Z,65.60
2018-09-24T18:39:15.460Z,65.00
2018-09-24T18:41:48.428Z,65.10
2018-09-24T18:44:21.836Z,65.10
2018-09-24T18:46:54.852Z,66.30
2018-09-24T18:49:27.763Z,66.10
2018-09-24T18:52:01.564Z,65.70
2018-09-24T18:54:34.887Z,65.00
2018-09-24T18:57:08.489Z,65.90
2018-09-24T18:59:42.115Z,65.20
2018-09-24T19:02:15.774Z,65.70
2018-09-24T19:04:48.792Z,65.50
2018-09-24T19:07:22.383Z,64.60
2018-09-24T19:09:55.302Z,65.60
2018-09-24T19:12:29.356Z,65.30
2018-09-24T19:15:02.338Z,65.40
2018-09-24T19:17:35.379Z,65.10
2018-09-24T19:20:08.247Z,65.20
2018-09-24T19:22:42.308Z,64.00
2018-09-24T19:25:15.207Z,64.30
2018-09-24T19:27:48.268Z,65.30
2018-09-24T19:30:22.303Z,64.40
2018-09-24T19:32:55.325Z,64.80
2018-09-24T19:35:28.319Z,64.90
2018-09-24T19:38:01.188Z,64.50
2018-09-24T19:40:34.048Z,64.90
2018-09-24T19:43:07.158Z,64.30
2018-09-24T19:45:40.938Z,64.60
2018-09-24T19:48:14.458Z,65.00
2018-09-24T19:50:48.111Z,64.60
2018-09-24T19:53:21.957Z,64.30
2018-09-24T19:55:54.935Z,65.10
2018-09-24T19:58:27.939Z,66.20
2018-09-24T20:01:01.044Z,66.10
2018-09-24T20:03:34.080Z,66.10
2018-09-24T20:06:07.040Z,66.10
2018-09-24T20:08:40.031Z,66.70
2018-09-24T20:11:13.105Z,67.10
2018-09-24T20:13:46.035Z,67.50
2018-09-24T20:16:19.035Z,67.80
2018-09-24T20:18:52.100Z,68.20
2018-09-24T20:21:24.846Z,68.40
2018-09-24T20:23:57.827Z,67.90
2018-09-24T20:26:30.871Z,67.30
2018-09-24T20:29:04.119Z,68.00
2018-09-24T20:31:37.264Z,68.00
2018-09-24T20:34:10.491Z,68.10
2018-09-24T20:36:43.965Z,68.10
2018-09-24T20:39:16.920Z,67.80
2018-09-24T20:41:49.883Z,68.00
2018-09-24T20:44:22.912Z,68.70
2018-09-24T20:46:55.915Z,68.80
2018-09-24T20:49:29.571Z,68.70
2018-09-24T20:52:02.533Z,69.00
2018-09-24T20:54:35.340Z,69.00
2018-09-24T20:57:08.341Z,69.30
2018-09-24T20:59:41.471Z,69.70
2018-09-24T21:02:14.505Z,69.50
2018-09-24T21:04:47.511Z,70.20
2018-09-24T21:07:20.516Z,70.20
2018-09-24T21:09:53.616Z,69.10
2018-09-24T21:12:26.500Z,69.70
2018-09-24T21:14:59.455Z,69.60
2018-09-24T21:17:32.559Z,69.20
2018-09-24T21:20:05.628Z,69.90
2018-09-24T21:22:38.540Z,70.20
2018-09-24T21:25:11.589Z,70.40
2018-09-24T21:27:44.443Z,71.00
2018-09-24T21:30:17.240Z,71.80
2018-09-24T21:32:50.095Z,71.30
2018-09-24T21:35:23.004Z,71.70
2018-09-24T21:37:55.870Z,72.50
2018-09-24T21:40:28.922Z,72.50
2018-09-24T21:43:01.912Z,72.90
2018-09-24T21:45:34.736Z,72.60
2018-09-24T21:48:07.663Z,72.60
2018-09-24T21:50:40.414Z,72.80
2018-09-24T21:53:13.311Z,72.20
2018-09-24T21:55:46.431Z,72.70
2018-09-24T21:58:19.504Z,72.40
2018-09-24T22:00:52.599Z,72.20
2018-09-24T22:03:32.312Z,72.90
2018-09-24T22:06:05.264Z,73.50
2018-09-24T22:08:38.316Z,73.40
2018-09-24T22:11:11.567Z,73.40
2018-09-24T22:13:44.472Z,73.90
2018-09-24T22:16:18.199Z,73.20
2018-09-24T22:18:51.082Z,73.70
2018-09-24T22:21:24.085Z,73.30
2018-09-24T22:23:56.903Z,73.40
2018-09-24T22:26:29.755Z,73.50
2018-09-24T22:29:02.616Z,74.40
2018-09-24T22:31:35.520Z,74.40
2018-09-24T22:34:08.571Z,74.80
2018-09-24T22:36:41.452Z,75.30
2018-09-24T22:39:14.270Z,75.30
2018-09-24T22:41:54.227Z,74.30
2018-09-24T22:44:27.236Z,74.50
2018-09-24T22:47:00.255Z,75.00
2018-09-24T22:49:33.071Z,74.70
2018-09-24T22:52:06.103Z,75.30
2018-09-24T22:54:38.924Z,75.10
2018-09-24T22:57:12.258Z,75.20
2018-09-24T22:59:45.198Z,75.00
2018-09-24T23:02:18.184Z,74.50
2018-09-24T23:04:51.112Z,73.50
2018-09-24T23:07:24.111Z,73.50
2018-09-24T23:09:57.128Z,73.50
2018-09-24T23:12:30.168Z,73.50
2018-09-24T23:22:14.352Z,72.40
2018-09-24T23:24:47.164Z,73.90
2018-09-24T23:27:19.999Z,73.80
2018-09-24T23:29:53.020Z,74.10
2018-09-24T23:32:25.964Z,73.50
2018-09-24T23:34:58.962Z,73.10
2018-09-24T23:37:31.858Z,73.20
2018-09-24T23:40:04.843Z,73.50
2018-09-24T23:42:37.856Z,73.60
2018-09-24T23:45:10.843Z,73.80
2018-09-24T23:47:43.856Z,74.20
2018-09-24T23:50:16.677Z,75.10
2018-09-24T23:52:49.676Z,74.60
2018-09-24T23:55:22.668Z,76.00
2018-09-24T23:57:55.675Z,75.40
